createdAt,value
2018-07-31T00:03:06.174Z,1.5
2018-07-31T00:13:20.188Z,3.0
2018-07-31T00:24:05.803Z,4.2
2018-07-31T00:34:21.575Z,3.9
2018-07-31T00:44:35.507Z,4.0
2018-07-31T00:54:49.668Z,4.5
2018-07-31T01:05:03.746Z,5.1
2018-07-31T01:15:14.984Z,4.8
2018-07-31T01:25:30.420Z,5.5
2018-07-31T01:35:46.447Z,4.1
2018-07-31T01:46:00.943Z,4.2
2018-07-31T01:56:12.443Z,4.4
2018-07-31T02:06:57.884Z,8.9
2018-07-31T02:17:43.685Z,5.7
2018-07-31T02:27:58.065Z,2.8
2018-07-31T02:38:11.228Z,2.9
2018-07-31T02:48:25.793Z,3.1
2018-07-31T02:58:39.605Z,3.4
2018-07-31T03:08:53.636Z,3.1
2018-07-31T03:19:39.440Z,6.2
2018-07-31T03:30:26.839Z,4.6
2018-07-31T03:40:42.125Z,2.5
2018-07-31T03:50:56.552Z,2.3
2018-07-31T04:01:10.723Z,3.2
2018-07-31T04:11:24.932Z,2.0
2018-07-31T04:21:39.180Z,4.2
2018-07-31T04:31:53.491Z,2.9
2018-07-31T04:42:07.696Z,3.4
2018-07-31T04:52:21.591Z,3.4
2018-07-31T05:02:35.989Z,2.9
2018-07-31T05:12:50.033Z,3.3
2018-07-31T05:23:04.393Z,4.7
2018-07-31T05:33:18.623Z,4.6
2018-07-31T05:43:32.865Z,3.8
2018-07-31T05:53:47.195Z,3.3
2018-07-31T06:04:01.232Z,6.0
2018-07-31T06:14:15.573Z,5.9
2018-07-31T06:24:29.866Z,5.2
2018-07-31T06:34:44.721Z,5.3
2018-07-31T06:44:58.307Z,6.9
2018-07-31T06:55:12.486Z,6.0
2018-07-31T07:05:27.352Z,5.5
2018-07-31T07:15:41.066Z,5.4
2018-07-31T07:25:55.231Z,3.9
2018-07-31T07:36:09.516Z,3.9
2018-07-31T07:46:23.864Z,4.8
2018-07-31T07:56:37.849Z,3.6
2018-07-31T08:06:52.168Z,3.0
2018-07-31T08:17:06.318Z,2.9
2018-07-31T08:27:19.465Z,2.2
2018-07-31T08:37:32.782Z,2.5
2018-07-31T08:47:47.181Z,2.1
2018-07-31T08:58:01.396Z,3.1
2018-07-31T09:08:16.161Z,1.7
2018-07-31T09:18:27.937Z,2.1
2018-07-31T09:28:42.191Z,1.1
2018-07-31T09:38:56.640Z,1.2
2018-07-31T09:49:10.920Z,1.1
2018-07-31T09:59:25.281Z,1.1
2018-07-31T10:09:37.415Z,1.2
2018-07-31T10:19:51.904Z,1.1
2018-07-31T10:30:37.551Z,1.0
2018-07-31T10:41:23.440Z,1.4
2018-07-31T10:52:14.750Z,0.9
2018-07-31T11:02:28.993Z,1.1
2018-07-31T11:13:34.718Z,0.9
2018-07-31T11:23:49.120Z,1.1
2018-07-31T11:34:06.348Z,1.1
2018-07-31T11:44:21.170Z,1.6
2018-07-31T11:54:47.459Z,1.9
2018-07-31T12:05:56.437Z,1.1
2018-07-31T12:16:10.632Z,2.0
2018-07-31T12:26:24.792Z,1.1
2018-07-31T12:36:38.980Z,1.3
2018-07-31T12:48:46.141Z,1.4
2018-07-31T13:00:07.439Z,1.3
2018-07-31T13:42:45.699Z,1.1
2018-07-31T14:07:06.161Z,1.5
2018-07-31T14:17:17.480Z,1.9
2018-07-31T14:28:03.029Z,1.4
2018-07-31T14:38:47.974Z,1.5
2018-07-31T14:48:59.347Z,1.4
2018-07-31T14:59:13.489Z,1.9
2018-07-31T15:09:30.327Z,1.3
2018-07-31T15:20:15.630Z,2.1
2018-07-31T15:30:51.055Z,1.8
2018-07-31T15:41:02.377Z,2.2
2018-07-31T15:51:16.467Z,1.6
2018-07-31T16:01:31.880Z,1.9
2018-07-31T16:11:47.677Z,1.0
2018-07-31T16:21:59.377Z,1.4
2018-07-31T16:32:13.530Z,1.6
2018-07-31T16:42:27.425Z,1.1
2018-07-31T16:52:41.827Z,1.3
2018-07-31T17:02:56.118Z,1.5
2018-07-31T17:13:08.033Z,1.3
2018-07-31T17:23:24.670Z,1.2
2018-07-31T17:33:38.555Z,1.2
2018-07-31T17:43:53.695Z,0.8
2018-07-31T17:54:05.283Z,1.0
2018-07-31T18:04:19.260Z,1.2
2018-07-31T18:14:30.692Z,1.0
2018-07-31T18:27:41.217Z,1.0
2018-07-31T19:00:41.092Z,1.0
2018-07-31T19:21:57.146Z,1.3
2018-07-31T19:43:14.517Z,1.1
2018-07-31T19:54:00.014Z,1.5
2018-07-31T20:04:14.633Z,1.3
2018-07-31T20:14:59.696Z,1.0
2018-07-31T20:25:44.483Z,1.2
2018-07-31T20:35:57.892Z,1.1
2018-07-31T20:46:12.189Z,0.8
2018-07-31T20:56:26.070Z,1.2
2018-07-31T21:06:40.515Z,0.7
2018-07-31T21:16:54.806Z,1.0
2018-07-31T21:27:40.687Z,1.0
2018-07-31T21:38:26.328Z,1.3
2018-07-31T21:49:12.063Z,1.1
2018-07-31T21:59:58.224Z,0.9
2018-07-31T22:10:12.303Z,0.9
2018-07-31T22:20:26.859Z,0.8
2018-07-31T22:30:40.960Z,1.5
2018-07-31T22:40:55.441Z,1.6
2018-07-31T22:51:40.302Z,1.1
2018-07-31T23:01:53.999Z,1.4
2018-07-31T23:12:08.051Z,0.7
2018-07-31T23:22:53.589Z,1.3
2018-07-31T23:33:07.346Z,0.8
2018-07-31T23:43:21.886Z,1.6
2018-07-31T23:53:35.716Z,1.2
